sensor_id;sensor_type;location;lat;lon;timestamp;temperature;humidity
6664;DHT22;58749;48.022;10.922;2023-02-13T00:00:57;2.70;99.90
6664;DHT22;58749;48.022;10.922;2023-02-13T00:03:27;2.70;99.90
6664;DHT22;58749;48.022;10.922;2023-02-13T00:05:55;2.70;99.90
6664;DHT22;58749;48.022;10.922;2023-02-13T00:08:23;2.80;99.90
6664;DHT22;58749;48.022;10.922;2023-02-13T00:10:51;2.80;99.90
6664;DHT22;58749;48.022;10.922;2023-02-13T00:13:19;2.80;99.90
6664;DHT22;58749;48.022;10.922;2023-02-13T00:15:55;2.80;99.90
6664;DHT22;58749;48.022;10.922;2023-02-13T00:18:23;2.70;99.90
6664;DHT22;58749;48.022;10.922;2023-02-13T00:21:04;2.80;99.90
6664;DHT22;58749;48.022;10.922;2023-02-13T00:23:33;2.80;99.90
6664;DHT22;58749;48.022;10.922;2023-02-13T00:26:05;2.80;99.90
6664;DHT22;58749;48.022;10.922;2023-02-13T00:28:33;2.80;99.90
6664;DHT22;58749;48.022;10.922;2023-02-13T00:31:03;2.70;99.90
6664;DHT22;58749;48.022;10.922;2023-02-13T00:33:31;2.80;99.90
6664;DHT22;58749;48.022;10.922;2023-02-13T00:36:09;2.80;99.90
6664;DHT22;58749;48.022;10.922;2023-02-13T00:38:38;2.70;99.90
6664;DHT22;58749;48.022;10.922;2023-02-13T00:41:07;2.70;99.90
6664;DHT22;58749;48.022;10.922;2023-02-13T00:43:35;2.70;99.90
6664;DHT22;58749;48.022;10.922;2023-02-13T00:46:04;2.70;99.90
6664;DHT22;58749;48.022;10.922;2023-02-13T00:48:33;2.70;99.90
6664;DHT22;58749;48.022;10.922;2023-02-13T00:51:03;2.70;99.90
6664;DHT22;58749;48.022;10.922;2023-02-13T00:53:33;2.70;99.90
6664;DHT22;58749;48.022;10.922;2023-02-13T00:56:02;2.70;99.90
6664;DHT22;58749;48.022;10.922;2023-02-13T00:58:31;2.70;99.90
6664;DHT22;58749;48.022;10.922;2023-02-13T01:00:59;2.70;99.90
6664;DHT22;58749;48.022;10.922;2023-02-13T01:03:27;2.60;99.90
6664;DHT22;58749;48.022;10.922;2023-02-13T01:05:56;2.60;99.90
6664;DHT22;58749;48.022;10.922;2023-02-13T01:08:24;2.70;99.90
6664;DHT22;58749;48.022;10.922;2023-02-13T01:10:55;2.70;99.90
6664;DHT22;58749;48.022;10.922;2023-02-13T01:13:24;2.60;99.90
6664;DHT22;58749;48.022;10.922;2023-02-13T01:15:53;2.70;99.90
6664;DHT22;58749;48.022;10.922;2023-02-13T01:18:21;2.70;99.90
6664;DHT22;58749;48.022;10.922;2023-02-13T01:20:56;2.80;99.90
6664;DHT22;58749;48.022;10.922;2023-02-13T01:23:26;2.80;99.90
6664;DHT22;58749;48.022;10.922;2023-02-13T01:25:57;2.90;99.90
6664;DHT22;58749;48.022;10.922;2023-02-13T01:28:26;2.80;99.90
6664;DHT22;58749;48.022;10.922;2023-02-13T01:30:54;2.70;99.90
6664;DHT22;58749;48.022;10.922;2023-02-13T01:33:25;2.60;99.90
6664;DHT22;58749;48.022;10.922;2023-02-13T01:35:53;2.60;99.90
6664;DHT22;58749;48.022;10.922;2023-02-13T01:38:21;2.50;99.90
6664;DHT22;58749;48.022;10.922;2023-02-13T01:40:50;2.50;99.90
6664;DHT22;58749;48.022;10.922;2023-02-13T01:43:20;2.50;99.90
6664;DHT22;58749;48.022;10.922;2023-02-13T01:45:51;2.60;99.90
6664;DHT22;58749;48.022;10.922;2023-02-13T01:48:22;2.60;99.90
6664;DHT22;58749;48.022;10.922;2023-02-13T01:50:55;2.60;99.90
6664;DHT22;58749;48.022;10.922;2023-02-13T01:53:28;2.60;99.90
6664;DHT22;58749;48.022;10.922;2023-02-13T01:55:58;2.60;99.90
6664;DHT22;58749;48.022;10.922;2023-02-13T01:58:32;2.50;99.90
6664;DHT22;58749;48.022;10.922;2023-02-13T02:01:02;2.60;99.90
6664;DHT22;58749;48.022;10.922;2023-02-13T02:03:34;2.60;99.90
6664;DHT22;58749;48.022;10.922;2023-02-13T02:06:03;2.50;99.90
6664;DHT22;58749;48.022;10.922;2023-02-13T02:08:32;2.40;99.90
6664;DHT22;58749;48.022;10.922;2023-02-13T02:11:14;2.40;99.90
6664;DHT22;58749;48.022;10.922;2023-02-13T02:13:45;2.40;99.90
6664;DHT22;58749;48.022;10.922;2023-02-13T02:16:14;2.40;99.90
6664;DHT22;58749;48.022;10.922;2023-02-13T02:18:42;2.40;99.90
6664;DHT22;58749;48.022;10.922;2023-02-13T02:24:27;2.30;99.90
6664;DHT22;58749;48.022;10.922;2023-02-13T02:27:29;2.30;99.90
6664;DHT22;58749;48.022;10.922;2023-02-13T02:30:44;2.20;99.90
6664;DHT22;58749;48.022;10.922;2023-02-13T02:33:23;2.30;99.90
6664;DHT22;58749;48.022;10.922;2023-02-13T02:36:05;2.30;99.90
6664;DHT22;58749;48.022;10.922;2023-02-13T02:38:50;2.30;99.90
6664;DHT22;58749;48.022;10.922;2023-02-13T02:41:31;2.30;99.90
6664;DHT22;58749;48.022;10.922;2023-02-13T02:44:17;2.30;99.90
6664;DHT22;58749;48.022;10.922;2023-02-13T02:46:57;2.30;99.90
6664;DHT22;58749;48.022;10.922;2023-02-13T02:49:53;2.30;99.90
6664;DHT22;58749;48.022;10.922;2023-02-13T02:52:39;2.40;99.90
6664;DHT22;58749;48.022;10.922;2023-02-13T02:55:15;2.40;99.90
6664;DHT22;58749;48.022;10.922;2023-02-13T02:57:49;2.50;99.90
6664;DHT22;58749;48.022;10.922;2023-02-13T03:00:41;2.50;99.90
6664;DHT22;58749;48.022;10.922;2023-02-13T03:03:27;2.50;99.90
6664;DHT22;58749;48.022;10.922;2023-02-13T03:06:18;2.50;99.90
6664;DHT22;58749;48.022;10.922;2023-02-13T03:08:53;2.50;99.90
6664;DHT22;58749;48.022;10.922;2023-02-13T03:11:41;2.50;99.90
6664;DHT22;58749;48.022;10.922;2023-02-13T03:14:28;2.50;99.90
6664;DHT22;58749;48.022;10.922;2023-02-13T03:16:57;2.40;99.90
6664;DHT22;58749;48.022;10.922;2023-02-13T03:19:53;2.40;99.90
6664;DHT22;58749;48.022;10.922;2023-02-13T03:22:48;2.50;99.90
6664;DHT22;58749;48.022;10.922;2023-02-13T03:25:26;2.50;99.90
6664;DHT22;58749;48.022;10.922;2023-02-13T03:28:06;2.50;99.90
6664;DHT22;58749;48.022;10.922;2023-02-13T03:31:02;2.50;99.90
6664;DHT22;58749;48.022;10.922;2023-02-13T03:33:47;2.50;99.90
6664;DHT22;58749;48.022;10.922;2023-02-13T03:36:26;2.60;99.90
6664;DHT22;58749;48.022;10.922;2023-02-13T03:39:18;2.70;99.90
6664;DHT22;58749;48.022;10.922;2023-02-13T03:41:52;2.70;99.90
6664;DHT22;58749;48.022;10.922;2023-02-13T03:44:27;2.80;99.90
6664;DHT22;58749;48.022;10.922;2023-02-13T03:46:59;2.90;99.90
6664;DHT22;58749;48.022;10.922;2023-02-13T03:49:32;3.00;99.90
6664;DHT22;58749;48.022;10.922;2023-02-13T03:52:24;2.90;99.90
6664;DHT22;58749;48.022;10.922;2023-02-13T03:54:57;2.90;99.90
6664;DHT22;58749;48.022;10.922;2023-02-13T03:57:46;2.90;99.90
6664;DHT22;58749;48.022;10.922;2023-02-13T04:00:35;3.00;99.90
6664;DHT22;58749;48.022;10.922;2023-02-13T04:03:12;3.00;99.90
6664;DHT22;58749;48.022;10.922;2023-02-13T04:05:46;3.00;99.90
6664;DHT22;58749;48.022;10.922;2023-02-13T04:08:16;3.00;99.90
6664;DHT22;58749;48.022;10.922;2023-02-13T04:10:49;3.00;99.90
6664;DHT22;58749;48.022;10.922;2023-02-13T04:13:25;3.10;99.90
6664;DHT22;58749;48.022;10.922;2023-02-13T04:15:56;3.10;99.90
6664;DHT22;58749;48.022;10.922;2023-02-13T04:18:28;3.00;99.90
6664;DHT22;58749;48.022;10.922;2023-02-13T04:21:01;3.10;99.90
6664;DHT22;58749;48.022;10.922;2023-02-13T04:23:29;3.10;99.90
6664;DHT22;58749;48.022;10.922;2023-02-13T04:25:59;3.10;99.90
6664;DHT22;58749;48.022;10.922;2023-02-13T04:28:29;3.10;99.90
6664;DHT22;58749;48.022;10.922;2023-02-13T04:30:57;3.10;99.90
6664;DHT22;58749;48.022;10.922;2023-02-13T04:33:25;3.10;99.90
6664;DHT22;58749;48.022;10.922;2023-02-13T04:35:53;3.10;99.90
6664;DHT22;58749;48.022;10.922;2023-02-13T04:38:22;3.20;99.90
6664;DHT22;58749;48.022;10.922;2023-02-13T04:40:50;3.20;99.90
6664;DHT22;58749;48.022;10.922;2023-02-13T04:43:20;3.20;99.90
6664;DHT22;58749;48.022;10.922;2023-02-13T04:45:48;3.20;99.90
6664;DHT22;58749;48.022;10.922;2023-02-13T04:48:17;3.20;99.90
6664;DHT22;58749;48.022;10.922;2023-02-13T04:50:45;3.30;99.90
6664;DHT22;58749;48.022;10.922;2023-02-13T04:53:13;3.20;99.90
6664;DHT22;58749;48.022;10.922;2023-02-13T04:55:41;3.20;99.90
6664;DHT22;58749;48.022;10.922;2023-02-13T04:58:09;3.20;99.90
6664;DHT22;58749;48.022;10.922;2023-02-13T05:00:39;3.20;99.90
6664;DHT22;58749;48.022;10.922;2023-02-13T05:03:08;3.20;99.90
6664;DHT22;58749;48.022;10.922;2023-02-13T05:05:37;3.20;99.90
6664;DHT22;58749;48.022;10.922;2023-02-13T05:08:06;3.20;99.90
6664;DHT22;58749;48.022;10.922;2023-02-13T05:10:34;3.20;99.90
6664;DHT22;58749;48.022;10.922;2023-02-13T05:13:02;3.20;99.90
6664;DHT22;58749;48.022;10.922;2023-02-13T05:15:30;3.20;99.90
6664;DHT22;58749;48.022;10.922;2023-02-13T05:18:00;3.20;99.90
6664;DHT22;58749;48.022;10.922;2023-02-13T05:20:28;3.20;99.90
6664;DHT22;58749;48.022;10.922;2023-02-13T05:22:56;3.20;99.90
6664;DHT22;58749;48.022;10.922;2023-02-13T05:25:43;3.20;99.90
6664;DHT22;58749;48.022;10.922;2023-02-13T05:28:11;3.20;99.90
6664;DHT22;58749;48.022;10.922;2023-02-13T05:30:53;3.20;99.90
6664;DHT22;58749;48.022;10.922;2023-02-13T05:33:22;3.20;99.90
6664;DHT22;58749;48.022;10.922;2023-02-13T05:35:51;3.20;99.90
6664;DHT22;58749;48.022;10.922;2023-02-13T05:38:19;3.10;99.90
6664;DHT22;58749;48.022;10.922;2023-02-13T05:40:47;3.10;99.90
6664;DHT22;58749;48.022;10.922;2023-02-13T05:43:15;3.10;99.90
6664;DHT22;58749;48.022;10.922;2023-02-13T05:45:43;3.00;99.90
6664;DHT22;58749;48.022;10.922;2023-02-13T05:48:11;3.00;99.90
6664;DHT22;58749;48.022;10.922;2023-02-13T05:50:40;2.80;99.90
6664;DHT22;58749;48.022;10.922;2023-02-13T05:53:08;2.80;99.90
6664;DHT22;58749;48.022;10.922;2023-02-13T05:55:37;2.80;99.90
6664;DHT22;58749;48.022;10.922;2023-02-13T05:58:05;2.80;99.90
6664;DHT22;58749;48.022;10.922;2023-02-13T06:00:35;2.80;99.90
6664;DHT22;58749;48.022;10.922;2023-02-13T06:03:03;2.90;99.90
6664;DHT22;58749;48.022;10.922;2023-02-13T06:05:31;2.90;99.90
6664;DHT22;58749;48.022;10.922;2023-02-13T06:08:01;2.90;99.90
6664;DHT22;58749;48.022;10.922;2023-02-13T06:10:29;2.80;99.90
6664;DHT22;58749;48.022;10.922;2023-02-13T06:12:57;2.80;99.90
6664;DHT22;58749;48.022;10.922;2023-02-13T06:15:25;2.80;99.90
6664;DHT22;58749;48.022;10.922;2023-02-13T06:17:53;2.80;99.90
6664;DHT22;58749;48.022;10.922;2023-02-13T06:20:21;2.70;99.90
6664;DHT22;58749;48.022;10.922;2023-02-13T06:22:55;2.70;99.90
6664;DHT22;58749;48.022;10.922;2023-02-13T06:25:25;2.70;99.90
6664;DHT22;58749;48.022;10.922;2023-02-13T06:27:53;2.80;99.90
6664;DHT22;58749;48.022;10.922;2023-02-13T06:30:21;2.80;99.90
6664;DHT22;58749;48.022;10.922;2023-02-13T06:32:49;2.80;99.90
6664;DHT22;58749;48.022;10.922;2023-02-13T06:35:18;2.70;99.90
6664;DHT22;58749;48.022;10.922;2023-02-13T06:37:46;2.60;99.90
6664;DHT22;58749;48.022;10.922;2023-02-13T06:40:14;2.60;99.90
6664;DHT22;58749;48.022;10.922;2023-02-13T06:42:45;2.60;99.90
6664;DHT22;58749;48.022;10.922;2023-02-13T06:45:13;2.60;99.90
6664;DHT22;58749;48.022;10.922;2023-02-13T06:47:42;2.60;99.90
6664;DHT22;58749;48.022;10.922;2023-02-13T06:50:12;2.60;99.90
6664;DHT22;58749;48.022;10.922;2023-02-13T06:52:45;2.60;99.90
6664;DHT22;58749;48.022;10.922;2023-02-13T06:55:13;2.60;99.90
6664;DHT22;58749;48.022;10.922;2023-02-13T06:57:41;2.60;99.90
6664;DHT22;58749;48.022;10.922;2023-02-13T07:00:13;2.60;99.90
6664;DHT22;58749;48.022;10.922;2023-02-13T07:02:43;2.60;99.90
6664;DHT22;58749;48.022;10.922;2023-02-13T07:05:12;2.60;99.90
6664;DHT22;58749;48.022;10.922;2023-02-13T07:07:41;2.60;99.90
6664;DHT22;58749;48.022;10.922;2023-02-13T07:10:11;2.50;99.90
6664;DHT22;58749;48.022;10.922;2023-02-13T07:12:39;2.50;99.90
6664;DHT22;58749;48.022;10.922;2023-02-13T07:15:08;2.50;99.90
6664;DHT22;58749;48.022;10.922;2023-02-13T07:17:37;2.60;99.90
6664;DHT22;58749;48.022;10.922;2023-02-13T07:20:07;2.60;99.90
6664;DHT22;58749;48.022;10.922;2023-02-13T07:22:35;2.60;99.90
6664;DHT22;58749;48.022;10.922;2023-02-13T07:25:03;2.70;99.90
6664;DHT22;58749;48.022;10.922;2023-02-13T07:27:31;2.70;99.90
6664;DHT22;58749;48.022;10.922;2023-02-13T07:29:59;2.80;99.90
6664;DHT22;58749;48.022;10.922;2023-02-13T07:32:28;2.90;99.90
6664;DHT22;58749;48.022;10.922;2023-02-13T07:34:57;2.90;99.90
6664;DHT22;58749;48.022;10.922;2023-02-13T07:37:28;3.00;99.90
6664;DHT22;58749;48.022;10.922;2023-02-13T07:39:57;3.00;99.90
6664;DHT22;58749;48.022;10.922;2023-02-13T07:42:25;3.00;99.90
6664;DHT22;58749;48.022;10.922;2023-02-13T07:44:53;3.00;99.90
6664;DHT22;58749;48.022;10.922;2023-02-13T07:47:21;3.00;99.90
6664;DHT22;58749;48.022;10.922;2023-02-13T07:49:49;3.00;99.90
6664;DHT22;58749;48.022;10.922;2023-02-13T07:52:19;3.10;99.90
6664;DHT22;58749;48.022;10.922;2023-02-13T07:54:47;3.20;99.90
6664;DHT22;58749;48.022;10.922;2023-02-13T07:57:15;3.10;99.90
6664;DHT22;58749;48.022;10.922;2023-02-13T07:59:44;3.20;99.90
6664;DHT22;58749;48.022;10.922;2023-02-13T08:02:13;3.20;99.90
6664;DHT22;58749;48.022;10.922;2023-02-13T08:04:42;3.10;99.90
6664;DHT22;58749;48.022;10.922;2023-02-13T08:07:12;3.10;99.90
6664;DHT22;58749;48.022;10.922;2023-02-13T08:09:43;3.10;99.90
6664;DHT22;58749;48.022;10.922;2023-02-13T08:12:29;3.20;99.90
6664;DHT22;58749;48.022;10.922;2023-02-13T08:14:58;3.20;99.90
6664;DHT22;58749;48.022;10.922;2023-02-13T08:17:26;3.20;99.90
6664;DHT22;58749;48.022;10.922;2023-02-13T08:19:54;3.30;99.90
6664;DHT22;58749;48.022;10.922;2023-02-13T08:22:22;3.30;99.90
6664;DHT22;58749;48.022;10.922;2023-02-13T08:24:52;3.40;99.90
6664;DHT22;58749;48.022;10.922;2023-02-13T08:27:20;3.30;99.90
6664;DHT22;58749;48.022;10.922;2023-02-13T08:29:49;3.40;99.90
6664;DHT22;58749;48.022;10.922;2023-02-13T08:32:17;3.40;99.90
6664;DHT22;58749;48.022;10.922;2023-02-13T08:34:45;3.40;99.90
6664;DHT22;58749;48.022;10.922;2023-02-13T08:37:13;3.40;99.90
6664;DHT22;58749;48.022;10.922;2023-02-13T08:39:42;3.50;99.90
6664;DHT22;58749;48.022;10.922;2023-02-13T08:42:12;3.50;99.90
6664;DHT22;58749;48.022;10.922;2023-02-13T08:44:42;3.50;99.90
6664;DHT22;58749;48.022;10.922;2023-02-13T08:47:10;3.50;99.90
6664;DHT22;58749;48.022;10.922;2023-02-13T08:49:39;3.50;99.90
6664;DHT22;58749;48.022;10.922;2023-02-13T08:52:07;3.60;99.90
6664;DHT22;58749;48.022;10.922;2023-02-13T08:54:35;3.60;99.90
6664;DHT22;58749;48.022;10.922;2023-02-13T08:57:03;3.60;99.90
6664;DHT22;58749;48.022;10.922;2023-02-13T08:59:33;3.50;99.90
6664;DHT22;58749;48.022;10.922;2023-02-13T09:02:01;3.60;99.90
6664;DHT22;58749;48.022;10.922;2023-02-13T09:04:29;3.50;99.90
6664;DHT22;58749;48.022;10.922;2023-02-13T09:06:58;3.50;99.90
6664;DHT22;58749;48.022;10.922;2023-02-13T09:09:26;3.60;99.90
6664;DHT22;58749;48.022;10.922;2023-02-13T09:11:54;3.60;99.90
6664;DHT22;58749;48.022;10.922;2023-02-13T09:14:23;3.60;99.90
6664;DHT22;58749;48.022;10.922;2023-02-13T09:16:53;3.70;99.90
6664;DHT22;58749;48.022;10.922;2023-02-13T09:19:21;3.70;99.90
6664;DHT22;58749;48.022;10.922;2023-02-13T09:21:49;3.70;99.90
6664;DHT22;58749;48.022;10.922;2023-02-13T09:24:17;3.70;99.90
6664;DHT22;58749;48.022;10.922;2023-02-13T09:26:46;3.70;99.90
6664;DHT22;58749;48.022;10.922;2023-02-13T09:29:14;3.70;99.90
6664;DHT22;58749;48.022;10.922;2023-02-13T09:31:42;3.60;99.90
6664;DHT22;58749;48.022;10.922;2023-02-13T09:34:12;3.60;99.90
6664;DHT22;58749;48.022;10.922;2023-02-13T09:36:40;3.40;99.90
6664;DHT22;58749;48.022;10.922;2023-02-13T09:39:08;3.30;99.90
6664;DHT22;58749;48.022;10.922;2023-02-13T09:41:38;3.30;99.90
6664;DHT22;58749;48.022;10.922;2023-02-13T09:44:13;3.40;99.90
6664;DHT22;58749;48.022;10.922;2023-02-13T09:47:02;3.40;99.90
6664;DHT22;58749;48.022;10.922;2023-02-13T09:49:36;3.50;99.90
6664;DHT22;58749;48.022;10.922;2023-02-13T09:52:06;3.60;99.90
6664;DHT22;58749;48.022;10.922;2023-02-13T09:54:35;3.70;99.90
6664;DHT22;58749;48.022;10.922;2023-02-13T09:57:09;3.80;99.90
6664;DHT22;58749;48.022;10.922;2023-02-13T09:59:55;3.80;99.90
6664;DHT22;58749;48.022;10.922;2023-02-13T10:02:40;3.80;99.90
6664;DHT22;58749;48.022;10.922;2023-02-13T10:05:29;3.90;99.90
6664;DHT22;58749;48.022;10.922;2023-02-13T10:08:09;3.90;99.90
6664;DHT22;58749;48.022;10.922;2023-02-13T10:10:47;3.80;99.90
6664;DHT22;58749;48.022;10.922;2023-02-13T10:13:30;3.80;99.90
6664;DHT22;58749;48.022;10.922;2023-02-13T10:16:05;3.80;99.90
6664;DHT22;58749;48.022;10.922;2023-02-13T10:18:42;3.90;99.90
6664;DHT22;58749;48.022;10.922;2023-02-13T10:21:13;3.90;99.90
6664;DHT22;58749;48.022;10.922;2023-02-13T10:23:47;4.00;99.90
6664;DHT22;58749;48.022;10.922;2023-02-13T10:26:19;4.00;99.90
6664;DHT22;58749;48.022;10.922;2023-02-13T10:28:50;4.00;99.90
6664;DHT22;58749;48.022;10.922;2023-02-13T10:31:40;4.10;99.90
6664;DHT22;58749;48.022;10.922;2023-02-13T10:34:14;4.20;99.90
6664;DHT22;58749;48.022;10.922;2023-02-13T10:36:46;4.20;99.90
6664;DHT22;58749;48.022;10.922;2023-02-13T10:39:22;4.10;99.90
6664;DHT22;58749;48.022;10.922;2023-02-13T10:41:52;4.10;99.90
6664;DHT22;58749;48.022;10.922;2023-02-13T10:44:36;4.00;99.90
6664;DHT22;58749;48.022;10.922;2023-02-13T10:47:15;4.10;99.90
6664;DHT22;58749;48.022;10.922;2023-02-13T10:49:59;4.10;99.90
6664;DHT22;58749;48.022;10.922;2023-02-13T10:52:39;4.20;99.90
6664;DHT22;58749;48.022;10.922;2023-02-13T10:55:17;4.30;99.90
6664;DHT22;58749;48.022;10.922;2023-02-13T10:58:02;4.40;99.90
6664;DHT22;58749;48.022;10.922;2023-02-13T11:00:34;4.50;99.90
6664;DHT22;58749;48.022;10.922;2023-02-13T11:03:04;4.50;99.90
6664;DHT22;58749;48.022;10.922;2023-02-13T11:05:42;4.50;99.90
6664;DHT22;58749;48.022;10.922;2023-02-13T11:08:17;4.50;99.90
6664;DHT22;58749;48.022;10.922;2023-02-13T11:11:27;4.50;99.90
6664;DHT22;58749;48.022;10.922;2023-02-13T11:14:08;4.60;99.90
6664;DHT22;58749;48.022;10.922;2023-02-13T11:16:51;4.60;99.90
6664;DHT22;58749;48.022;10.922;2023-02-13T11:19:30;4.60;99.90
6664;DHT22;58749;48.022;10.922;2023-02-13T11:22:03;4.50;99.90
6664;DHT22;58749;48.022;10.922;2023-02-13T11:24:57;4.50;99.90
6664;DHT22;58749;48.022;10.922;2023-02-13T11:27:32;4.50;99.90
6664;DHT22;58749;48.022;10.922;2023-02-13T11:30:32;4.50;99.90
6664;DHT22;58749;48.022;10.922;2023-02-13T11:33:22;4.40;99.90
6664;DHT22;58749;48.022;10.922;2023-02-13T11:36:07;4.40;99.90
6664;DHT22;58749;48.022;10.922;2023-02-13T11:38:40;4.20;99.90
6664;DHT22;58749;48.022;10.922;2023-02-13T11:41:19;4.10;99.90
6664;DHT22;58749;48.022;10.922;2023-02-13T11:43:51;3.90;99.90
6664;DHT22;58749;48.022;10.922;2023-02-13T11:50:02;3.90;99.90
6664;DHT22;58749;48.022;10.922;2023-02-13T11:52:35;4.00;99.90
6664;DHT22;58749;48.022;10.922;2023-02-13T11:55:33;4.10;99.90
6664;DHT22;58749;48.022;10.922;2023-02-13T11:58:25;4.20;99.90
6664;DHT22;58749;48.022;10.922;2023-02-13T12:01:24;4.20;99.90
6664;DHT22;58749;48.022;10.922;2023-02-13T12:04:04;4.20;99.90
6664;DHT22;58749;48.022;10.922;2023-02-13T12:06:57;4.40;99.90
6664;DHT22;58749;48.022;10.922;2023-02-13T12:09:38;4.60;99.90
6664;DHT22;58749;48.022;10.922;2023-02-13T12:12:17;4.70;99.90
6664;DHT22;58749;48.022;10.922;2023-02-13T12:14:50;4.80;99.90
6664;DHT22;58749;48.022;10.922;2023-02-13T12:17:27;5.00;99.90
6664;DHT22;58749;48.022;10.922;2023-02-13T12:19:59;5.10;99.90
6664;DHT22;58749;48.022;10.922;2023-02-13T12:22:41;5.20;99.90
6664;DHT22;58749;48.022;10.922;2023-02-13T12:25:30;5.20;99.90
6664;DHT22;58749;48.022;10.922;2023-02-13T12:28:17;5.20;99.90
6664;DHT22;58749;48.022;10.922;2023-02-13T12:37:39;4.80;99.90
6664;DHT22;58749;48.022;10.922;2023-02-13T12:40:36;4.80;99.90
6664;DHT22;58749;48.022;10.922;2023-02-13T12:43:43;4.80;99.90
6664;DHT22;58749;48.022;10.922;2023-02-13T12:46:21;4.90;99.90
6664;DHT22;58749;48.022;10.922;2023-02-13T12:49:01;4.90;99.90
6664;DHT22;58749;48.022;10.922;2023-02-13T12:51:42;4.80;99.90
6664;DHT22;58749;48.022;10.922;2023-02-13T12:54:34;4.80;99.90
6664;DHT22;58749;48.022;10.922;2023-02-13T12:57:23;4.80;99.90
6664;DHT22;58749;48.022;10.922;2023-02-13T13:00:16;4.90;99.90
6664;DHT22;58749;48.022;10.922;2023-02-13T13:03:06;5.10;99.90
6664;DHT22;58749;48.022;10.922;2023-02-13T13:05:52;5.10;99.90
6664;DHT22;58749;48.022;10.922;2023-02-13T13:08:53;5.20;99.90
6664;DHT22;58749;48.022;10.922;2023-02-13T13:11:38;5.20;99.90
6664;DHT22;58749;48.022;10.922;2023-02-13T13:14:13;5.20;99.90
6664;DHT22;58749;48.022;10.922;2023-02-13T13:16:49;5.10;99.90
6664;DHT22;58749;48.022;10.922;2023-02-13T13:19:28;5.20;99.90
6664;DHT22;58749;48.022;10.922;2023-02-13T13:22:02;5.10;99.90
6664;DHT22;58749;48.022;10.922;2023-02-13T13:24:34;5.10;99.90
6664;DHT22;58749;48.022;10.922;2023-02-13T13:27:15;5.00;99.90
6664;DHT22;58749;48.022;10.922;2023-02-13T13:29:47;5.10;99.90
6664;DHT22;58749;48.022;10.922;2023-02-13T13:32:19;5.10;99.90
6664;DHT22;58749;48.022;10.922;2023-02-13T13:34:50;5.10;99.90
6664;DHT22;58749;48.022;10.922;2023-02-13T13:37:25;5.10;99.90
6664;DHT22;58749;48.022;10.922;2023-02-13T13:39:59;5.00;99.90
6664;DHT22;58749;48.022;10.922;2023-02-13T13:42:30;5.10;99.90
6664;DHT22;58749;48.022;10.922;2023-02-13T13:45:26;5.10;99.90
6664;DHT22;58749;48.022;10.922;2023-02-13T13:48:08;5.00;99.90
6664;DHT22;58749;48.022;10.922;2023-02-13T13:50:45;5.00;99.90
6664;DHT22;58749;48.022;10.922;2023-02-13T13:53:15;5.00;99.90
6664;DHT22;58749;48.022;10.922;2023-02-13T13:56:02;5.00;99.90
6664;DHT22;58749;48.022;10.922;2023-02-13T13:58:35;5.10;99.90
6664;DHT22;58749;48.022;10.922;2023-02-13T14:01:26;5.10;99.90
6664;DHT22;58749;48.022;10.922;2023-02-13T14:03:56;5.10;99.90
6664;DHT22;58749;48.022;10.922;2023-02-13T14:06:28;5.10;99.90
6664;DHT22;58749;48.022;10.922;2023-02-13T14:09:38;5.10;99.90
6664;DHT22;58749;48.022;10.922;2023-02-13T14:12:37;5.10;99.90
6664;DHT22;58749;48.022;10.922;2023-02-13T14:18:19;5.00;99.90
6664;DHT22;58749;48.022;10.922;2023-02-13T14:20:52;5.10;99.90
6664;DHT22;58749;48.022;10.922;2023-02-13T14:23:45;5.00;99.90
6664;DHT22;58749;48.022;10.922;2023-02-13T14:26:37;5.00;99.90
6664;DHT22;58749;48.022;10.922;2023-02-13T14:29:35;4.90;99.90
6664;DHT22;58749;48.022;10.922;2023-02-13T14:34:57;4.80;99.90
6664;DHT22;58749;48.022;10.922;2023-02-13T14:37:37;4.60;99.90
6664;DHT22;58749;48.022;10.922;2023-02-13T14:43:28;4.40;99.90
6664;DHT22;58749;48.022;10.922;2023-02-13T14:46:05;4.30;99.90
6664;DHT22;58749;48.022;10.922;2023-02-13T14:48:39;4.30;99.90
6664;DHT22;58749;48.022;10.922;2023-02-13T14:51:16;4.30;99.90
6664;DHT22;58749;48.022;10.922;2023-02-13T14:53:57;4.30;99.90
6664;DHT22;58749;48.022;10.922;2023-02-13T14:56:27;4.20;99.90
6664;DHT22;58749;48.022;10.922;2023-02-13T14:59:04;4.20;99.90
6664;DHT22;58749;48.022;10.922;2023-02-13T15:01:36;4.10;99.90
6664;DHT22;58749;48.022;10.922;2023-02-13T15:04:11;4.00;99.90
6664;DHT22;58749;48.022;10.922;2023-02-13T15:06:42;4.00;99.90
6664;DHT22;58749;48.022;10.922;2023-02-13T15:09:23;3.90;99.90
6664;DHT22;58749;48.022;10.922;2023-02-13T15:11:53;3.80;99.90
6664;DHT22;58749;48.022;10.922;2023-02-13T15:14:27;3.80;99.90
6664;DHT22;58749;48.022;10.922;2023-02-13T15:17:00;3.80;99.90
6664;DHT22;58749;48.022;10.922;2023-02-13T15:19:33;3.70;99.90
6664;DHT22;58749;48.022;10.922;2023-02-13T15:22:04;3.60;99.90
6664;DHT22;58749;48.022;10.922;2023-02-13T15:24:42;3.50;99.90
6664;DHT22;58749;48.022;10.922;2023-02-13T15:27:18;3.40;99.90
6664;DHT22;58749;48.022;10.922;2023-02-13T15:29:56;3.40;99.90
6664;DHT22;58749;48.022;10.922;2023-02-13T15:32:31;3.40;99.90
6664;DHT22;58749;48.022;10.922;2023-02-13T15:34:59;3.30;99.90
6664;DHT22;58749;48.022;10.922;2023-02-13T15:37:29;3.30;99.90
6664;DHT22;58749;48.022;10.922;2023-02-13T15:40:14;3.40;99.90
6664;DHT22;58749;48.022;10.922;2023-02-13T15:42:42;3.30;99.90
6664;DHT22;58749;48.022;10.922;2023-02-13T15:45:16;3.40;99.90
6664;DHT22;58749;48.022;10.922;2023-02-13T15:47:46;3.40;99.90
6664;DHT22;58749;48.022;10.922;2023-02-13T15:50:17;3.40;99.90
6664;DHT22;58749;48.022;10.922;2023-02-13T15:52:46;3.40;99.90
6664;DHT22;58749;48.022;10.922;2023-02-13T15:55:20;3.40;99.90
6664;DHT22;58749;48.022;10.922;2023-02-13T15:57:49;3.40;99.90
6664;DHT22;58749;48.022;10.922;2023-02-13T16:00:23;3.30;99.90
6664;DHT22;58749;48.022;10.922;2023-02-13T16:02:53;3.30;99.90
6664;DHT22;58749;48.022;10.922;2023-02-13T16:05:23;3.30;99.90
6664;DHT22;58749;48.022;10.922;2023-02-13T16:08:26;3.40;99.90
6664;DHT22;58749;48.022;10.922;2023-02-13T16:11:19;3.50;99.90
6664;DHT22;58749;48.022;10.922;2023-02-13T16:14:01;3.60;99.90
6664;DHT22;58749;48.022;10.922;2023-02-13T16:16:33;3.70;99.90
6664;DHT22;58749;48.022;10.922;2023-02-13T16:19:03;3.80;99.90
6664;DHT22;58749;48.022;10.922;2023-02-13T16:21:31;3.90;99.90
6664;DHT22;58749;48.022;10.922;2023-02-13T16:24:03;3.90;99.90
6664;DHT22;58749;48.022;10.922;2023-02-13T16:26:33;3.90;99.90
6664;DHT22;58749;48.022;10.922;2023-02-13T16:29:08;4.00;99.90
6664;DHT22;58749;48.022;10.922;2023-02-13T16:31:39;4.00;99.90
6664;DHT22;58749;48.022;10.922;2023-02-13T16:34:20;3.90;99.90
6664;DHT22;58749;48.022;10.922;2023-02-13T16:36:49;3.90;99.90
6664;DHT22;58749;48.022;10.922;2023-02-13T16:39:19;3.90;99.90
6664;DHT22;58749;48.022;10.922;2023-02-13T16:41:50;3.90;99.90
6664;DHT22;58749;48.022;10.922;2023-02-13T16:44:24;3.90;99.90
6664;DHT22;58749;48.022;10.922;2023-02-13T16:46:56;4.00;99.90
6664;DHT22;58749;48.022;10.922;2023-02-13T16:49:27;4.00;99.90
6664;DHT22;58749;48.022;10.922;2023-02-13T16:51:58;4.00;99.90
6664;DHT22;58749;48.022;10.922;2023-02-13T16:54:31;4.00;99.90